Terminal Aerodrome Forecast
Issued by NWS

Home | Current Version | Previous Version | Text Only | Print | Product List | Glossary On
Versions: 1 2 3 4 5 6 7 8 9 10 11 12 13 14 15
540
FTUS41 KBTV 201131
TAFSLK
TAF
KSLK 201131Z 2012/2112 32007KT P6SM OVC018
     FM201400 32006KT P6SM OVC025
     FM201600 36004KT P6SM SCT040 BKN120
     FM202100 34005KT P6SM FEW150=

USA.gov is the U.S. government's official web portal to all federal, state and local government web resources and services.